createdAt,value
2018-10-12T00:04:35.066Z,9.70
2018-10-12T00:10:05.688Z,8.40
2018-10-12T00:15:35.098Z,9.30
2018-10-12T00:21:08.521Z,10.20
2018-10-12T00:26:38.024Z,8.83
2018-10-12T00:32:07.522Z,9.70
2018-10-12T00:37:36.972Z,9.57
2018-10-12T00:43:06.378Z,8.17
2018-10-12T00:48:35.713Z,8.03
2018-10-12T00:54:04.992Z,8.23
2018-10-12T00:59:34.276Z,8.10
2018-10-12T01:05:04.737Z,7.75
2018-10-12T01:10:34.046Z,6.70
2018-10-12T01:16:03.402Z,6.43
2018-10-12T01:21:32.741Z,7.20
2018-10-12T01:27:04.065Z,8.30
2018-10-12T01:32:38.409Z,6.80
2018-10-12T01:38:08.846Z,6.83
2018-10-12T01:43:38.167Z,5.60
2018-10-12T01:49:07.597Z,5.43
2018-10-12T01:54:36.961Z,5.13
2018-10-12T02:00:07.041Z,5.10
2018-10-12T02:05:36.377Z,4.20
2018-10-12T02:11:06.940Z,4.90
2018-10-12T02:16:36.336Z,5.13
2018-10-12T02:22:05.731Z,5.17
2018-10-12T02:27:36.336Z,4.70
2018-10-12T02:33:05.721Z,5.77
2018-10-12T02:38:35.114Z,5.50
2018-10-12T02:44:04.446Z,5.30
2018-10-12T02:49:33.747Z,4.90
2018-10-12T02:55:04.317Z,5.33
2018-10-12T03:00:33.674Z,5.20
2018-10-12T03:06:03.062Z,5.40
2018-10-12T03:11:33.439Z,4.90
2018-10-12T03:17:02.882Z,5.27
2018-10-12T03:22:32.210Z,4.70
2018-10-12T03:28:19.755Z,4.80
2018-10-12T03:33:49.983Z,4.80
2018-10-12T03:39:19.227Z,5.20
2018-10-12T03:44:48.569Z,4.90
2018-10-12T03:50:17.907Z,4.63
2018-10-12T03:55:47.140Z,4.80
2018-10-12T04:01:16.514Z,5.10
2018-10-12T04:06:45.801Z,5.37
2018-10-12T04:12:15.032Z,5.10
2018-10-12T04:17:44.441Z,5.67
2018-10-12T04:23:14.385Z,5.50
2018-10-12T04:28:43.965Z,5.13
2018-10-12T04:34:13.349Z,5.50
2018-10-12T04:41:56.635Z,5.57
2018-10-12T04:47:30.628Z,5.47
2018-10-12T04:53:03.974Z,4.80
2018-10-12T04:58:38.018Z,5.20
2018-10-12T05:04:07.557Z,5.30
2018-10-12T05:09:37.517Z,5.50
2018-10-12T05:15:07.029Z,5.70
2018-10-12T05:20:36.646Z,5.40
2018-10-12T05:26:06.544Z,6.20
2018-10-12T05:31:36.250Z,6.70
2018-10-12T05:37:06.107Z,7.13
2018-10-12T05:42:35.693Z,10.93
2018-10-12T05:48:22.025Z,12.30
2018-10-12T05:53:52.238Z,7.60
2018-10-12T05:59:21.857Z,7.47
2018-10-12T06:04:51.389Z,8.17
2018-10-12T06:10:20.923Z,10.20
2018-10-12T06:15:50.555Z,8.43
2018-10-12T06:21:19.996Z,7.10
2018-10-12T06:26:49.496Z,6.50
2018-10-12T06:32:18.900Z,6.87
2018-10-12T06:37:48.481Z,6.90
2018-10-12T06:43:17.954Z,7.47
2018-10-12T06:48:49.741Z,7.70
2018-10-12T06:54:19.273Z,7.47
2018-10-12T06:59:48.746Z,7.30
2018-10-12T07:05:18.276Z,7.17
2018-10-12T07:10:47.746Z,6.67
2018-10-12T07:16:17.744Z,7.10
2018-10-12T07:21:47.270Z,7.00
2018-10-12T07:27:16.745Z,6.53
2018-10-12T07:32:46.329Z,6.47
2018-10-12T07:38:16.033Z,9.80
2018-10-12T07:43:45.654Z,7.70
2018-10-12T07:49:15.226Z,7.20
2018-10-12T07:54:45.294Z,4.73
2018-10-12T08:00:15.167Z,4.27
2018-10-12T08:05:44.869Z,3.90
2018-10-12T08:11:14.520Z,3.50
2018-10-12T08:16:44.053Z,4.07
2018-10-12T08:22:13.609Z,3.23
2018-10-12T08:27:42.900Z,3.40
2018-10-12T08:33:12.162Z,3.00
2018-10-12T08:38:41.505Z,3.27
2018-10-12T08:44:10.850Z,3.47
2018-10-12T08:49:40.067Z,3.27
2018-10-12T08:55:09.349Z,2.80
2018-10-12T09:00:38.633Z,2.77
2018-10-12T09:06:07.942Z,2.80
2018-10-12T09:11:37.721Z,2.60
2018-10-12T09:17:07.137Z,2.73
2018-10-12T09:22:36.412Z,2.87
2018-10-12T09:28:05.859Z,2.73
2018-10-12T09:33:35.324Z,2.70
2018-10-12T09:39:05.748Z,3.13
2018-10-12T09:44:35.328Z,3.17
2018-10-12T09:50:04.754Z,2.80
2018-10-12T09:55:34.032Z,2.90
2018-10-12T10:01:08.404Z,2.57
2018-10-12T10:06:37.784Z,2.60
2018-10-12T10:12:07.148Z,3.20
2018-10-12T10:17:36.669Z,2.70
2018-10-12T10:23:05.943Z,3.13
2018-10-12T10:28:35.260Z,2.20
2018-10-12T10:34:04.803Z,2.60
2018-10-12T10:39:34.139Z,2.40
2018-10-12T10:45:03.965Z,2.30
2018-10-12T10:50:33.312Z,2.80
2018-10-12T10:56:02.629Z,2.50
2018-10-12T11:01:31.855Z,2.70
2018-10-12T11:07:02.225Z,2.70
2018-10-12T11:12:31.735Z,2.47
2018-10-12T11:18:01.028Z,2.10
2018-10-12T11:23:30.373Z,2.80
2018-10-12T11:28:59.864Z,3.53
2018-10-12T11:34:29.158Z,3.27
2018-10-12T11:39:58.384Z,2.20
2018-10-12T11:45:27.948Z,2.13
2018-10-12T11:50:57.309Z,2.47
2018-10-12T11:56:26.636Z,2.33
2018-10-12T12:01:55.943Z,2.00
2018-10-12T12:07:25.357Z,1.90
2018-10-12T12:12:54.645Z,2.30
2018-10-12T12:18:24.010Z,2.40
2018-10-12T12:23:54.485Z,2.53
2018-10-12T12:29:24.377Z,2.30
2018-10-12T12:34:53.945Z,2.10
2018-10-12T12:40:23.125Z,2.40
2018-10-12T12:45:52.524Z,2.60
2018-10-12T12:51:21.757Z,2.20
2018-10-12T12:56:51.146Z,2.40
2018-10-12T13:02:21.581Z,2.52
2018-10-12T13:07:51.812Z,2.65
2018-10-12T13:13:21.612Z,2.00
2018-10-12T13:18:50.901Z,2.77
2018-10-12T13:24:20.413Z,2.13
2018-10-12T13:29:49.795Z,2.00
2018-10-12T13:35:19.345Z,2.20
2018-10-12T13:40:48.672Z,2.33
2018-10-12T13:46:18.077Z,2.33
2018-10-12T13:51:47.414Z,2.03
2018-10-12T13:57:16.608Z,2.43
2018-10-12T14:02:45.920Z,2.30
2018-10-12T14:08:15.446Z,1.80
2018-10-12T14:13:44.794Z,2.40
2018-10-12T14:19:14.407Z,2.00
2018-10-12T14:24:43.436Z,2.67
2018-10-12T14:30:12.832Z,1.80
2018-10-12T14:35:42.211Z,2.10
2018-10-12T14:41:11.637Z,2.20
2018-10-12T14:46:40.997Z,2.57
2018-10-12T14:52:10.459Z,2.57
2018-10-12T14:57:39.844Z,2.47
2018-10-12T15:03:09.205Z,2.10
2018-10-12T15:08:38.488Z,1.90
2018-10-12T15:14:07.929Z,2.30
2018-10-12T15:19:38.422Z,2.47
2018-10-12T15:25:07.793Z,2.47
2018-10-12T15:30:37.134Z,2.87
2018-10-12T15:36:06.624Z,2.67
2018-10-12T15:41:36.232Z,2.70
2018-10-12T15:47:05.670Z,2.92
2018-10-12T15:52:35.260Z,2.60
2018-10-12T15:58:05.576Z,3.60
2018-10-12T16:03:35.105Z,2.93
2018-10-12T16:09:05.269Z,2.83
2018-10-12T16:14:34.724Z,3.07
2018-10-12T16:20:05.582Z,2.50
2018-10-12T16:26:04.232Z,3.20
2018-10-12T16:31:33.502Z,3.93
2018-10-12T16:37:03.223Z,2.80
2018-10-12T16:42:32.976Z,2.90
2018-10-12T16:48:02.652Z,3.33
2018-10-12T16:53:32.288Z,3.30
2018-10-12T16:59:01.943Z,2.97
2018-10-12T17:04:32.288Z,3.30
2018-10-12T17:10:02.075Z,3.03
2018-10-12T17:15:31.726Z,3.13
2018-10-12T17:21:03.089Z,3.20
2018-10-12T17:26:33.441Z,3.43
2018-10-12T17:32:02.787Z,3.73
2018-10-12T17:37:32.284Z,3.40
2018-10-12T17:43:01.953Z,4.07
2018-10-12T17:48:31.342Z,4.53
2018-10-12T17:54:05.061Z,4.50
2018-10-12T17:59:34.719Z,5.67
2018-10-12T18:05:06.281Z,5.30
2018-10-12T18:10:35.709Z,7.23
2018-10-12T18:16:07.823Z,6.20
2018-10-12T18:21:58.144Z,8.23
2018-10-12T18:27:31.104Z,6.60
2018-10-12T18:33:02.904Z,7.58
2018-10-12T18:38:33.511Z,8.20
2018-10-12T18:44:03.289Z,8.50
2018-10-12T18:49:35.274Z,28.63
2018-10-12T18:55:07.116Z,8.83
2018-10-12T19:00:47.658Z,8.40
2018-10-12T19:06:32.854Z,10.20
2018-10-12T19:12:15.056Z,9.30
2018-10-12T19:17:55.086Z,9.70
2018-10-12T19:23:39.360Z,7.70
2018-10-12T19:29:20.368Z,7.63
2018-10-12T19:34:55.357Z,7.40
2018-10-12T19:40:34.900Z,8.30
2018-10-12T19:46:11.602Z,7.93
2018-10-12T19:51:52.526Z,7.80
2018-10-12T19:57:35.001Z,8.60
2018-10-12T20:03:06.492Z,8.77
2018-10-12T20:08:55.978Z,9.00
2018-10-12T20:14:43.035Z,9.70
2018-10-12T20:20:14.274Z,18.00
2018-10-12T20:25:45.584Z,18.50
2018-10-12T20:31:26.330Z,15.33
2018-10-12T20:36:58.105Z,22.03
2018-10-12T20:42:27.636Z,15.10
2018-10-12T20:47:57.034Z,10.53
2018-10-12T20:53:26.324Z,9.50
2018-10-12T20:58:55.736Z,9.77
2018-10-12T21:04:26.415Z,9.20
2018-10-12T21:09:56.063Z,8.50
2018-10-12T21:15:25.452Z,9.60
2018-10-12T21:20:54.904Z,8.90
2018-10-12T21:26:24.587Z,9.90
2018-10-12T21:31:54.104Z,9.30
2018-10-12T21:37:23.760Z,9.33
2018-10-12T21:42:53.253Z,10.10
2018-10-12T21:48:23.065Z,10.37
2018-10-12T21:53:53.950Z,11.60
2018-10-12T21:59:23.635Z,11.40
2018-10-12T22:04:52.981Z,10.13
2018-10-12T22:10:22.255Z,9.50
2018-10-12T22:15:51.532Z,9.50
2018-10-12T22:21:21.269Z,9.70
2018-10-12T22:26:51.604Z,10.30
2018-10-12T22:32:20.784Z,9.27
2018-10-12T22:37:50.062Z,8.93
2018-10-12T22:43:19.274Z,9.40
2018-10-12T22:48:48.616Z,8.73
2018-10-12T22:54:18.168Z,8.63
2018-10-12T22:59:47.754Z,8.70
2018-10-12T23:05:16.969Z,8.43
2018-10-12T23:10:46.296Z,8.60
2018-10-12T23:16:15.524Z,8.63
2018-10-12T23:21:44.817Z,8.00
2018-10-12T23:27:14.063Z,8.20
2018-10-12T23:32:43.350Z,8.63
2018-10-12T23:38:12.649Z,8.13
2018-10-12T23:43:41.861Z,7.43
2018-10-12T23:49:12.116Z,8.30
2018-10-12T23:54:41.339Z,8.23
